Time;durP1;ratioP1;P1;durP2;ratioP2;P2;SDS_P1;SDS_P2;PMS_P1;PMS_P2;Temp;Humidity;BMP_temperature;BMP_pressure;BME280_temperature;BME280_humidity;BME280_pressure;Samples;Min_cycle;Max_cycle;Signal;HPM_P1;HPM_P2
2023/01/21 00:01:51;;;;;;;6.30;3.88;;;;;;;2.22;72.64;100839.91;5015004;28;20099;-81
2023/01/21 00:04:17;;;;;;;3.80;2.83;;;;;;;2.36;72.82;100871.25;4998426;28;20030;-80
2023/01/21 00:06:43;;;;;;;4.97;4.10;;;;;;;2.32;72.32;100854.25;5014254;28;20033;-80
2023/01/21 00:09:08;;;;;;;3.05;1.63;;;;;;;2.40;72.14;100860.13;5014507;28;20481;-81
2023/01/21 00:11:33;;;;;;;3.35;2.42;;;;;;;2.43;72.24;100885.59;5031314;28;20037;-80
2023/01/21 00:13:59;;;;;;;4.30;2.95;;;;;;;2.20;72.08;100850.13;5032242;28;20084;-80
2023/01/21 00:16:24;;;;;;;5.55;3.85;;;;;;;2.28;72.57;100871.31;5032516;28;20053;-81
2023/01/21 00:18:50;;;;;;;6.22;4.63;;;;;;;2.41;72.46;100889.03;5014762;28;20107;-80
2023/01/21 00:21:15;;;;;;;3.47;2.38;;;;;;;2.42;72.74;100891.56;5014682;28;20415;-80
2023/01/21 00:23:41;;;;;;;2.47;2.28;;;;;;;2.42;73.58;100873.69;5014242;28;20041;-80
2023/01/21 00:26:07;;;;;;;7.10;2.90;;;;;;;2.45;72.80;100876.22;5014102;28;20044;-80
2023/01/21 00:28:33;;;;;;;5.55;2.58;;;;;;;2.38;71.89;100845.69;5014693;28;20040;-80
2023/01/21 00:31:00;;;;;;;5.45;3.00;;;;;;;2.23;73.02;100823.72;5030602;28;20030;-80
2023/01/21 00:33:26;;;;;;;10.57;4.45;;;;;;;2.39;73.01;100866.09;5031293;28;20037;-80
2023/01/21 00:36:01;;;;;;;4.20;3.38;;;;;;;2.37;72.76;100852.50;5014513;28;20116;-80
2023/01/21 00:38:26;;;;;;;2.65;2.38;;;;;;;2.29;73.12;100865.34;5031751;28;20500;-80
2023/01/21 00:40:52;;;;;;;6.05;3.45;;;;;;;2.18;72.50;100841.66;5031098;28;20025;-80
2023/01/21 00:43:19;;;;;;;6.25;3.33;;;;;;;2.34;72.96;100872.09;5014081;28;20136;-80
2023/01/21 00:45:44;;;;;;;8.32;3.95;;;;;;;2.33;72.85;100871.25;5014318;28;20036;-80
2023/01/21 00:48:10;;;;;;;4.43;2.53;;;;;;;2.29;72.49;100872.16;5014152;28;20036;-80
2023/01/21 00:50:35;;;;;;;6.10;3.17;;;;;;;2.35;72.70;100894.22;5014078;28;20065;-80
2023/01/21 00:53:00;;;;;;;5.82;4.18;;;;;;;2.28;72.39;100885.78;5013695;28;20033;-80
2023/01/21 00:55:26;;;;;;;5.75;3.30;;;;;;;2.19;72.53;100873.97;5014053;28;20033;-80
2023/01/21 00:57:52;;;;;;;5.18;3.55;;;;;;;2.21;72.86;100871.38;5014014;28;20477;-80
2023/01/21 01:00:18;;;;;;;5.70;3.10;;;;;;;1.82;73.58;100836.91;5014319;28;20032;-80
2023/01/21 01:02:43;;;;;;;3.42;3.13;;;;;;;2.09;73.75;100874.94;5030433;28;20036;-80
2023/01/21 01:05:09;;;;;;;3.53;2.60;;;;;;;1.97;73.56;100859.75;5013824;28;20026;-80
2023/01/21 01:07:35;;;;;;;6.90;3.58;;;;;;;2.07;73.84;100876.66;5030025;28;20480;-80
2023/01/21 01:10:00;;;;;;;4.75;2.95;;;;;;;2.14;73.48;100867.19;5013809;28;20025;-80
2023/01/21 01:12:27;;;;;;;3.05;2.75;;;;;;;2.22;73.67;100852.66;4997301;28;20064;-80
2023/01/21 01:14:53;;;;;;;7.53;4.47;;;;;;;2.27;73.14;100840.69;5030201;28;20033;-80
2023/01/21 01:17:18;;;;;;;6.88;2.55;;;;;;;2.18;72.92;100858.66;5013185;28;20060;-80
2023/01/21 01:19:44;;;;;;;3.35;3.05;;;;;;;2.19;73.31;100858.66;5030921;28;20037;-80
2023/01/21 01:22:09;;;;;;;30.23;2.25;;;;;;;2.21;72.80;100868.84;5013560;28;20151;-80
2023/01/21 01:24:35;;;;;;;7.75;3.80;;;;;;;2.23;72.68;100879.88;5013330;28;20036;-80
2023/01/21 01:27:00;;;;;;;12.23;4.03;;;;;;;2.10;73.55;100883.41;5029918;28;20492;-80
2023/01/21 01:29:27;;;;;;;7.53;5.03;;;;;;;2.08;73.48;100873.22;5029685;28;20056;-80
2023/01/21 01:31:52;;;;;;;6.38;4.15;;;;;;;2.03;73.48;100848.59;5013698;28;20029;-80
2023/01/21 01:34:18;;;;;;;3.90;2.38;;;;;;;2.22;73.02;100870.53;5012895;28;20040;-80
2023/01/21 01:36:43;;;;;;;2.47;2.17;;;;;;;2.15;72.93;100874.00;5031104;28;20025;-80
2023/01/21 01:39:09;;;;;;;6.00;4.05;;;;;;;2.01;73.18;100858.84;5013229;28;20484;-80
2023/01/21 01:41:34;;;;;;;2.85;2.63;;;;;;;1.92;73.20;100861.47;5013461;28;20033;-80
2023/01/21 01:44:41;;;;;;;4.80;2.00;;;;;;;1.96;73.47;100881.84;5013271;28;20079;-80
2023/01/21 01:47:07;;;;;;;5.03;3.42;;;;;;;1.89;73.98;100870.03;5030655;28;20025;-80
2023/01/21 01:49:32;;;;;;;2.90;1.60;;;;;;;1.80;74.17;100869.25;5029241;28;20042;-80
2023/01/21 01:52:00;;;;;;;3.33;2.50;;;;;;;1.72;74.06;100861.66;4996846;28;20034;-80
2023/01/21 01:54:33;;;;;;;2.20;2.03;;;;;;;2.04;74.63;100898.78;4996825;28;20029;-80
2023/01/21 01:57:00;;;;;;;4.15;3.55;;;;;;;1.94;74.48;100885.25;5013636;28;20112;-80
2023/01/21 01:59:25;;;;;;;4.78;3.65;;;;;;;1.75;74.69;100846.31;5013157;28;20112;-80
2023/01/21 02:01:51;;;;;;;5.05;3.95;;;;;;;1.95;74.14;100876.75;5029266;28;20060;-80
2023/01/21 02:04:19;;;;;;;3.13;2.67;;;;;;;1.75;74.15;100841.22;5028891;28;20033;-80
2023/01/21 02:06:45;;;;;;;2.55;2.28;;;;;;;1.80;74.85;100849.69;5013417;28;20445;-80
2023/01/21 02:09:11;;;;;;;3.45;2.83;;;;;;;1.87;75.25;100859.00;5012596;28;20065;-80
2023/01/21 02:11:36;;;;;;;5.45;3.35;;;;;;;1.99;74.81;100866.50;5013033;28;20108;-80
2023/01/21 02:14:02;;;;;;;5.63;3.50;;;;;;;1.97;74.54;100863.13;5012889;28;20079;-80
2023/01/21 02:16:49;;;;;;;6.50;3.90;;;;;;;1.98;74.58;100876.75;4996454;28;20049;-80
2023/01/21 02:19:52;;;;;;;5.65;3.53;;;;;;;1.91;75.17;100872.56;4996622;28;20466;-80
2023/01/21 02:22:24;;;;;;;5.25;3.75;;;;;;;1.92;75.23;100875.09;5030219;28;20167;-80
2023/01/21 02:25:01;;;;;;;5.70;4.05;;;;;;;1.86;74.75;100853.88;5028897;28;20516;-80
2023/01/21 02:27:45;;;;;;;5.00;2.85;;;;;;;1.77;75.70;100842.06;5029055;28;20030;-80
2023/01/21 02:30:32;;;;;;;4.45;3.30;;;;;;;1.92;75.59;100869.97;5030698;28;20067;-80
2023/01/21 02:33:19;;;;;;;13.30;5.32;;;;;;;1.88;75.37;100868.31;5032792;28;20061;-80
2023/01/21 02:35:54;;;;;;;4.68;3.95;;;;;;;1.77;75.35;100852.28;5033219;28;20033;-80
2023/01/21 02:38:45;;;;;;;7.35;4.05;;;;;;;1.92;74.77;100857.22;5017115;28;20036;-80
2023/01/21 02:41:35;;;;;;;4.60;3.00;;;;;;;1.86;75.01;100828.34;5018910;28;20025;-80
2023/01/21 02:44:04;;;;;;;3.05;2.35;;;;;;;1.88;75.39;100826.66;5033058;28;20030;-80
2023/01/21 02:46:42;;;;;;;4.25;3.53;;;;;;;1.85;75.46;100811.38;5034140;28;20028;-80
2023/01/21 02:49:34;;;;;;;5.10;4.05;;;;;;;1.93;75.35;100805.31;5032559;28;20412;-80
2023/01/21 02:51:59;;;;;;;6.78;5.55;;;;;;;1.70;75.19;100758.81;5017678;28;20029;-80
2023/01/21 02:54:40;;;;;;;7.20;3.67;;;;;;;1.95;75.18;100778.09;5032638;28;20467;-80
2023/01/21 02:57:06;;;;;;;12.20;4.57;;;;;;;1.92;75.82;100767.06;5034138;28;20080;-81
2023/01/21 02:59:32;;;;;;;5.57;3.75;;;;;;;1.87;76.30;100766.28;5016253;28;20536;-80
2023/01/21 03:02:07;;;;;;;10.55;5.45;;;;;;;1.83;76.32;100752.72;5015818;28;20120;-80
2023/01/21 03:05:03;;;;;;;6.43;4.65;;;;;;;1.94;76.01;100760.25;5032382;28;20029;-80
2023/01/21 03:07:33;;;;;;;5.72;3.95;;;;;;;1.88;75.40;100771.38;5033838;28;20071;-80
2023/01/21 03:10:41;;;;;;;4.60;4.15;;;;;;;1.91;76.15;100776.44;5015900;28;20029;-80
2023/01/21 03:19:00;;;;;;;9.32;5.15;;;;;;;1.98;74.63;100767.03;5018261;28;20087;-80
2023/01/21 03:21:27;;;;;;;4.93;3.40;;;;;;;1.97;74.69;100760.22;5016081;28;20029;-80
2023/01/21 03:23:52;;;;;;;3.35;2.60;;;;;;;1.96;74.04;100754.25;5032321;28;20029;-80
2023/01/21 03:26:21;;;;;;;5.35;2.80;;;;;;;2.09;74.00;100752.41;5032320;28;20554;-80
2023/01/21 03:28:50;;;;;;;3.88;2.55;;;;;;;1.96;74.77;100744.03;5015716;28;20163;-80
2023/01/21 03:31:22;;;;;;;3.67;2.75;;;;;;;1.97;74.75;100740.66;5015442;28;20040;-80
2023/01/21 03:33:48;;;;;;;6.22;3.05;;;;;;;2.01;74.32;100752.50;5016092;28;20136;-80
2023/01/21 03:36:20;;;;;;;6.25;4.45;;;;;;;2.00;73.84;100767.84;5015983;28;20129;-80
2023/01/21 03:38:47;;;;;;;3.40;2.78;;;;;;;1.99;74.73;100759.34;5031812;28;20057;-80
2023/01/21 03:41:23;;;;;;;6.18;4.25;;;;;;;2.05;75.17;100767.78;5015416;28;20033;-80
2023/01/21 03:43:49;;;;;;;6.25;3.63;;;;;;;1.86;75.23;100737.38;5016695;28;20033;-80
2023/01/21 03:46:48;;;;;;;10.40;6.07;;;;;;;1.97;74.95;100745.75;4998659;28;20507;-80
2023/01/21 03:49:22;;;;;;;8.35;5.00;;;;;;;1.85;75.00;100748.44;5017286;28;20029;-80
2023/01/21 03:51:50;;;;;;;5.90;3.83;;;;;;;1.81;74.94;100741.69;5015692;28;20021;-80
2023/01/21 03:54:15;;;;;;;10.90;4.65;;;;;;;1.98;75.11;100778.06;5015473;28;20112;-80
2023/01/21 03:56:41;;;;;;;3.83;3.03;;;;;;;1.98;74.82;100772.13;5031624;28;20424;-80
2023/01/21 03:59:06;;;;;;;5.43;3.33;;;;;;;1.94;74.63;100781.50;5031276;28;20068;-80
2023/01/21 04:01:32;;;;;;;9.02;3.85;;;;;;;1.72;75.50;100755.38;5014441;28;20084;-80
2023/01/21 04:03:57;;;;;;;7.75;4.18;;;;;;;1.75;75.58;100769.81;4998624;28;20026;-80
2023/01/21 04:06:23;;;;;;;7.95;4.15;;;;;;;1.83;75.77;100783.31;5014832;28;20127;-80
2023/01/21 04:08:48;;;;;;;5.80;3.50;;;;;;;1.85;75.78;100779.03;5014823;28;20040;-80
2023/01/21 04:11:14;;;;;;;5.68;4.53;;;;;;;1.85;75.94;100770.53;5015121;28;20059;-80
2023/01/21 04:13:39;;;;;;;5.55;3.78;;;;;;;1.85;75.98;100776.50;5031574;28;20071;-80
2023/01/21 04:16:05;;;;;;;5.60;3.83;;;;;;;1.91;75.93;100790.91;5014330;28;20068;-80
2023/01/21 04:18:31;;;;;;;6.88;2.60;;;;;;;1.79;76.24;100784.22;5014759;28;20043;-80
2023/01/21 04:20:56;;;;;;;3.55;2.85;;;;;;;1.78;76.05;100779.16;5014335;28;20493;-80
2023/01/21 04:23:22;;;;;;;4.68;3.78;;;;;;;1.84;76.37;100789.28;5014358;28;20101;-80
2023/01/21 04:25:48;;;;;;;6.15;3.10;;;;;;;1.73;76.57;100763.88;5014126;28;20060;-80
2023/01/21 04:28:13;;;;;;;5.65;4.20;;;;;;;1.94;76.26;100776.41;5014237;28;20041;-80
2023/01/21 04:30:39;;;;;;;3.42;2.25;;;;;;;1.78;76.34;100758.75;4998149;28;20416;-80
2023/01/21 04:33:04;;;;;;;6.18;2.45;;;;;;;1.97;76.89;100781.50;5014258;28;20033;-80
2023/01/21 04:35:30;;;;;;;6.28;4.32;;;;;;;1.90;77.66;100772.19;5030617;28;20489;-80
2023/01/21 04:37:56;;;;;;;4.07;2.60;;;;;;;2.03;77.26;100774.59;5014266;28;20034;-80
2023/01/21 04:40:21;;;;;;;2.55;2.25;;;;;;;2.04;77.64;100781.41;5014359;28;20088;-80
2023/01/21 04:42:46;;;;;;;2.83;2.58;;;;;;;2.14;77.54;100798.28;5013934;28;20034;-80
2023/01/21 04:45:12;;;;;;;3.00;2.63;;;;;;;1.94;77.48;100758.53;5030688;28;20033;-80
2023/01/21 04:47:41;;;;;;;4.45;3.97;;;;;;;2.06;77.36;100779.66;5030352;28;20021;-80
2023/01/21 04:50:08;;;;;;;4.03;3.25;;;;;;;2.21;77.11;100802.47;5014125;28;20120;-80
2023/01/21 04:52:33;;;;;;;8.13;3.67;;;;;;;2.31;76.98;100801.50;5013573;28;20488;-80
2023/01/21 04:54:59;;;;;;;4.22;3.05;;;;;;;2.20;77.24;100788.03;5014066;28;20032;-80
2023/01/21 04:57:24;;;;;;;8.60;2.47;;;;;;;2.24;77.30;100787.09;5029872;28;20496;-80
2023/01/21 04:59:50;;;;;;;3.55;2.88;;;;;;;2.29;77.31;100808.34;5030146;28;20073;-80
2023/01/21 05:02:15;;;;;;;4.25;2.83;;;;;;;2.27;77.34;100818.56;5014208;28;20551;-80
2023/01/21 05:04:40;;;;;;;5.00;2.78;;;;;;;2.28;77.61;100816.88;5013783;28;20041;-80
2023/01/21 05:07:06;;;;;;;3.13;2.83;;;;;;;2.33;76.97;100812.53;5013539;28;20397;-80
2023/01/21 05:09:31;;;;;;;5.32;2.58;;;;;;;2.39;77.12;100814.19;4996952;28;20121;-80
2023/01/21 05:11:57;;;;;;;4.70;3.20;;;;;;;2.36;77.61;100815.06;5029843;28;20026;-80
2023/01/21 05:14:22;;;;;;;4.70;4.25;;;;;;;2.25;77.28;100784.53;5013720;28;20511;-80
2023/01/21 05:16:48;;;;;;;7.13;5.20;;;;;;;2.30;76.92;100794.69;5029852;28;20060;-80
2023/01/21 05:19:13;;;;;;;6.75;3.38;;;;;;;2.32;77.08;100798.06;5013543;28;20036;-80
2023/01/21 05:21:39;;;;;;;13.73;3.80;;;;;;;2.47;76.68;100817.47;5013647;28;20061;-80
2023/01/21 05:24:04;;;;;;;8.23;2.50;;;;;;;2.51;76.79;100837.84;5013331;28;20049;-80
2023/01/21 05:26:30;;;;;;;5.45;2.90;;;;;;;2.43;76.47;100837.09;5013042;28;20108;-80
2023/01/21 05:28:55;;;;;;;6.93;2.63;;;;;;;2.43;75.98;100816.66;5013176;28;20021;-80
2023/01/21 05:31:21;;;;;;;6.10;4.15;;;;;;;2.38;76.91;100826.09;5029448;28;20036;-80
2023/01/21 05:33:46;;;;;;;6.70;5.28;;;;;;;2.29;77.49;100833.88;5013465;28;20052;-80
2023/01/21 05:36:12;;;;;;;3.42;3.10;;;;;;;2.45;76.96;100871.09;5013386;28;20037;-80
2023/01/21 05:38:38;;;;;;;4.63;3.20;;;;;;;2.37;76.66;100849.94;5013465;28;20025;-80
2023/01/21 05:41:03;;;;;;;4.43;2.83;;;;;;;2.47;77.00;100858.34;5029375;28;20457;-80
2023/01/21 05:43:29;;;;;;;5.13;3.40;;;;;;;2.43;76.89;100849.84;5013392;28;20033;-80
2023/01/21 05:45:54;;;;;;;4.63;3.65;;;;;;;2.44;76.25;100854.09;5030684;28;20456;-80
2023/01/21 05:48:20;;;;;;;7.30;4.18;;;;;;;2.50;77.02;100866.81;5013057;28;20484;-80
2023/01/21 05:50:46;;;;;;;8.15;4.68;;;;;;;2.55;76.90;100869.28;5029668;28;20480;-80
2023/01/21 05:53:12;;;;;;;6.00;3.85;;;;;;;2.48;77.72;100868.53;5013130;28;20029;-80
2023/01/21 05:55:37;;;;;;;3.20;2.78;;;;;;;2.47;77.22;100866.84;5012690;28;20458;-80
2023/01/21 05:58:03;;;;;;;3.97;3.53;;;;;;;2.32;77.09;100859.34;5013112;28;20040;-80
2023/01/21 06:00:28;;;;;;;5.10;3.90;;;;;;;2.40;77.46;100872.88;5013054;28;20037;-80
2023/01/21 06:02:54;;;;;;;7.57;4.15;;;;;;;2.37;76.86;100867.81;5013063;28;20026;-80
2023/01/21 06:05:19;;;;;;;7.43;4.03;;;;;;;2.58;76.93;100905.88;5028356;28;20505;-80
2023/01/21 06:07:45;;;;;;;6.25;3.83;;;;;;;2.50;77.49;100902.56;5012799;28;20075;-80
2023/01/21 06:10:10;;;;;;;8.13;5.68;;;;;;;2.47;77.30;100906.88;5012571;28;20512;-80
2023/01/21 06:12:36;;;;;;;7.90;4.10;;;;;;;2.54;78.38;100909.31;5012892;28;20036;-80
2023/01/21 06:15:01;;;;;;;4.50;4.07;;;;;;;2.56;77.54;100892.28;5012687;28;20029;-80
2023/01/21 06:17:27;;;;;;;5.53;4.18;;;;;;;2.61;78.17;100902.44;5012708;28;20060;-80
2023/01/21 06:19:53;;;;;;;2.78;2.40;;;;;;;2.57;77.96;100893.97;5029295;28;20030;-80
2023/01/21 06:22:18;;;;;;;7.18;3.47;;;;;;;2.75;77.12;100899.69;5012608;28;20046;-80
2023/01/21 06:24:44;;;;;;;5.50;4.32;;;;;;;2.73;77.32;100921.88;5028610;28;20026;-80
2023/01/21 06:27:09;;;;;;;9.98;4.88;;;;;;;2.60;77.15;100895.63;5012843;28;20419;-80
2023/01/21 06:29:35;;;;;;;8.75;5.13;;;;;;;2.83;77.30;100936.22;5028850;28;20065;-80
2023/01/21 06:32:00;;;;;;;7.30;4.97;;;;;;;2.75;77.19;100935.47;5012754;28;20535;-80
2023/01/21 06:34:26;;;;;;;10.40;4.72;;;;;;;2.70;78.55;100937.25;4996529;28;20059;-80
2023/01/21 06:36:51;;;;;;;6.55;4.07;;;;;;;2.69;78.33;100941.50;5012610;28;20485;-80
2023/01/21 06:39:17;;;;;;;6.22;3.85;;;;;;;2.63;78.03;100935.59;5029819;28;20412;-80
2023/01/21 06:41:42;;;;;;;8.15;5.45;;;;;;;2.74;78.20;100954.22;5030400;28;20036;-81
2023/01/21 06:44:08;;;;;;;10.55;6.88;;;;;;;2.66;78.06;100944.09;5012670;28;20102;-80
2023/01/21 06:46:33;;;;;;;6.43;4.80;;;;;;;2.73;78.11;100963.59;5028817;28;20056;-80
2023/01/21 06:48:59;;;;;;;6.10;5.05;;;;;;;2.72;77.84;100968.72;5029080;28;20033;-80
2023/01/21 06:51:24;;;;;;;6.55;5.25;;;;;;;2.74;77.53;100944.84;5012451;28;20037;-80
2023/01/21 06:53:50;;;;;;;10.57;7.60;;;;;;;2.88;77.38;100963.44;5012238;28;20123;-80
2023/01/21 06:56:15;;;;;;;12.00;5.90;;;;;;;2.78;77.30;100950.78;4996247;28;20036;-80
2023/01/21 06:58:41;;;;;;;7.07;4.95;;;;;;;2.83;77.03;100964.31;5012385;28;20026;-80
2023/01/21 07:01:06;;;;;;;6.90;4.50;;;;;;;2.83;77.41;100956.66;5012506;28;20488;-80
2023/01/21 07:03:32;;;;;;;8.98;5.97;;;;;;;2.95;77.75;100969.31;5028655;28;20025;-80
2023/01/21 07:05:57;;;;;;;9.18;5.68;;;;;;;2.97;76.87;100957.34;5012397;28;20033;-81
2023/01/21 07:08:23;;;;;;;6.35;4.75;;;;;;;2.98;76.95;100968.44;5012192;28;20072;-80
2023/01/21 07:10:48;;;;;;;5.15;3.05;;;;;;;3.06;76.90;100962.34;5028581;28;20029;-80
2023/01/21 07:13:14;;;;;;;11.40;5.95;;;;;;;3.12;76.31;100977.59;4996099;28;20057;-80
2023/01/21 07:15:39;;;;;;;9.30;5.47;;;;;;;3.12;76.95;100987.81;5013122;28;20491;-80
2023/01/21 07:18:05;;;;;;;8.75;3.78;;;;;;;3.08;76.51;100978.50;5032210;28;20049;-80
2023/01/21 07:20:30;;;;;;;5.15;4.43;;;;;;;3.08;76.89;100970.84;5016243;28;20434;-80
2023/01/21 07:22:56;;;;;;;6.15;4.43;;;;;;;3.11;75.73;100970.78;5031546;28;20030;-80
2023/01/21 07:25:21;;;;;;;12.00;5.13;;;;;;;3.14;74.16;100969.91;5015771;28;20036;-80
2023/01/21 07:27:47;;;;;;;6.03;5.07;;;;;;;3.14;74.34;100973.31;5032004;28;20026;-80
2023/01/21 07:30:19;;;;;;;5.55;3.88;;;;;;;2.98;73.85;100924.97;5015472;28;20584;-80
2023/01/21 07:32:45;;;;;;;3.88;3.58;;;;;;;3.11;73.48;100941.84;5015568;28;20076;-80
2023/01/21 07:35:11;;;;;;;7.68;5.63;;;;;;;3.26;72.99;100976.59;5015374;28;20492;-80
2023/01/21 07:37:36;;;;;;;9.65;5.03;;;;;;;3.26;73.56;100963.81;4998769;28;20036;-80
2023/01/21 07:40:02;;;;;;;9.23;5.63;;;;;;;3.27;74.03;100960.38;5015511;28;20033;-80
2023/01/21 07:42:27;;;;;;;17.70;7.65;;;;;;;3.28;74.63;100959.50;5031881;28;20019;-80
2023/01/21 07:44:53;;;;;;;6.20;5.55;;;;;;;3.21;73.68;100958.75;5015097;28;20037;-80
2023/01/21 07:47:18;;;;;;;12.15;8.60;;;;;;;3.27;74.00;100961.22;5031811;28;20026;-80
2023/01/21 07:49:44;;;;;;;11.18;7.40;;;;;;;3.16;74.23;100940.06;5015119;28;20036;-80
2023/01/21 07:52:09;;;;;;;8.02;5.85;;;;;;;3.26;74.10;100963.81;4998570;28;20030;-80
2023/01/21 07:54:35;;;;;;;15.75;9.23;;;;;;;3.38;74.33;100978.97;5031533;28;20080;-80
2023/01/21 07:57:00;;;;;;;7.35;5.20;;;;;;;3.36;73.53;100980.72;5031375;28;20037;-80
2023/01/21 07:59:26;;;;;;;7.43;4.72;;;;;;;3.41;73.96;100995.13;5031628;28;20029;-80
2023/01/21 08:01:51;;;;;;;8.50;4.78;;;;;;;3.45;73.47;100985.72;5032790;28;20076;-80
2023/01/21 08:04:17;;;;;;;5.63;4.93;;;;;;;3.46;73.45;100992.50;5031329;28;20034;-80
2023/01/21 08:06:42;;;;;;;4.97;4.07;;;;;;;3.59;73.21;101014.50;5031127;28;20034;-80
2023/01/21 08:09:08;;;;;;;9.50;3.97;;;;;;;3.66;72.82;101020.38;5030978;28;20048;-80
2023/01/21 08:11:34;;;;;;;16.80;4.78;;;;;;;3.69;72.21;101022.88;5015013;28;20072;-80
2023/01/21 08:13:59;;;;;;;6.15;3.95;;;;;;;3.77;72.26;101022.78;5014753;28;20531;-80
2023/01/21 08:16:25;;;;;;;6.15;3.47;;;;;;;3.88;72.14;101031.13;5030829;28;20056;-80
2023/01/21 08:18:51;;;;;;;8.10;3.53;;;;;;;3.78;70.74;101019.34;5014695;28;20141;-79
2023/01/21 08:21:17;;;;;;;8.32;5.15;;;;;;;3.88;70.46;101021.75;5014186;28;20468;-80
2023/01/21 08:23:42;;;;;;;11.90;8.18;;;;;;;3.85;70.69;101006.44;5031154;28;20026;-80
2023/01/21 08:26:08;;;;;;;9.57;5.88;;;;;;;3.95;70.48;101005.44;5014354;28;20029;-80
2023/01/21 08:28:33;;;;;;;11.15;7.47;;;;;;;4.13;69.30;101011.97;5013450;28;20072;-80
2023/01/21 08:31:06;;;;;;;9.40;5.88;;;;;;;4.20;70.14;101010.13;5030536;28;20033;-80
2023/01/21 08:33:32;;;;;;;9.95;6.15;;;;;;;4.19;69.68;100995.66;5014409;28;20512;-79
2023/01/21 08:36:01;;;;;;;11.95;5.88;;;;;;;4.24;69.55;100988.75;5014167;28;20029;-79
2023/01/21 08:38:27;;;;;;;9.20;5.13;;;;;;;4.32;69.77;101018.44;5014316;28;20083;-80
2023/01/21 08:40:52;;;;;;;11.90;7.75;;;;;;;4.37;69.35;101036.31;5030735;28;20416;-80
2023/01/21 08:43:18;;;;;;;15.52;8.63;;;;;;;4.46;69.50;101041.28;5030495;28;20029;-80
2023/01/21 08:45:43;;;;;;;8.73;6.75;;;;;;;4.45;68.58;101037.03;5014111;28;20535;-80
2023/01/21 08:48:09;;;;;;;8.60;6.40;;;;;;;4.43;68.79;101046.47;5014065;28;20051;-80
2023/01/21 08:50:34;;;;;;;7.43;5.70;;;;;;;4.57;68.30;101062.44;5013870;28;20029;-80
2023/01/21 08:53:00;;;;;;;11.20;5.28;;;;;;;4.65;68.15;101064.03;5013793;28;20029;-79
2023/01/21 08:55:25;;;;;;;7.30;4.88;;;;;;;4.67;67.65;101052.88;5014045;28;20033;-80
2023/01/21 08:57:53;;;;;;;10.32;5.38;;;;;;;4.58;66.82;101027.41;5030756;28;20025;-79
2023/01/21 09:00:19;;;;;;;4.30;3.08;;;;;;;4.84;67.09;101057.72;5014113;28;20030;-79
2023/01/21 09:02:44;;;;;;;6.93;2.67;;;;;;;4.86;67.05;101041.41;5013874;28;20500;-80
2023/01/21 09:05:10;;;;;;;5.20;3.53;;;;;;;4.87;66.76;101021.75;5030050;28;20083;-80
2023/01/21 09:07:35;;;;;;;3.92;2.92;;;;;;;4.94;65.88;101027.63;5013800;28;20065;-80
2023/01/21 09:10:02;;;;;;;4.53;3.47;;;;;;;4.77;66.28;100999.72;5013532;28;20030;-80
2023/01/21 09:12:28;;;;;;;6.82;4.43;;;;;;;4.79;66.56;100997.97;4997593;28;20496;-79
2023/01/21 09:14:53;;;;;;;7.75;4.20;;;;;;;4.78;67.69;101002.25;5013723;28;20032;-79
2023/01/21 09:17:19;;;;;;;6.28;3.53;;;;;;;4.77;67.75;101010.84;5046237;28;20095;-80
2023/01/21 09:19:44;;;;;;;8.93;4.55;;;;;;;4.94;66.67;101028.47;5013664;28;20381;-80
2023/01/21 09:22:10;;;;;;;7.03;3.97;;;;;;;4.89;67.32;101025.97;5013606;28;20036;-80
2023/01/21 09:24:36;;;;;;;7.95;4.82;;;;;;;4.87;66.92;101014.91;5030036;28;20044;-79
2023/01/21 09:27:01;;;;;;;2.58;2.38;;;;;;;4.81;66.38;101004.75;5013278;28;20033;-79
2023/01/21 09:29:27;;;;;;;5.95;4.93;;;;;;;4.88;66.95;101026.00;5029974;28;20037;-80
2023/01/21 09:31:52;;;;;;;9.07;3.85;;;;;;;5.01;66.58;101036.88;5013523;28;20024;-80
2023/01/21 09:34:18;;;;;;;4.20;2.67;;;;;;;5.02;67.03;101028.31;5013090;28;20087;-80
2023/01/21 09:36:43;;;;;;;8.20;4.07;;;;;;;4.89;68.02;101018.28;5013201;28;20476;-80
2023/01/21 09:39:08;;;;;;;8.93;4.18;;;;;;;4.84;67.89;101012.41;5013101;28;20064;-80
2023/01/21 09:41:43;;;;;;;7.30;4.15;;;;;;;5.03;67.59;101022.31;5013315;28;20033;-79
2023/01/21 09:44:26;;;;;;;3.92;2.72;;;;;;;5.11;66.77;101030.69;5029354;28;20017;-80
2023/01/21 09:47:15;;;;;;;14.15;4.95;;;;;;;5.10;66.74;101034.13;5030869;28;20025;-80
2023/01/21 09:49:42;;;;;;;7.50;4.65;;;;;;;5.03;66.76;101038.53;5030181;28;20038;-80
2023/01/21 09:52:14;;;;;;;5.25;3.65;;;;;;;4.97;66.90;101030.13;5013319;28;20108;-80
2023/01/21 09:54:39;;;;;;;6.05;3.55;;;;;;;5.05;67.69;101035.94;5029788;28;20029;-80
2023/01/21 09:57:14;;;;;;;4.13;2.55;;;;;;;4.98;67.68;101035.22;5029378;28;20389;-80
2023/01/21 09:59:51;;;;;;;7.88;3.05;;;;;;;5.01;67.57;101008.66;5029146;28;20039;-79
2023/01/21 10:02:24;;;;;;;3.60;2.00;;;;;;;4.82;67.41;100996.22;5030168;28;20559;-80
2023/01/21 10:05:22;;;;;;;8.77;4.28;;;;;;;4.95;68.25;101029.31;5013362;28;20029;-80
2023/01/21 10:07:52;;;;;;;5.25;3.20;;;;;;;4.87;68.08;101001.25;5030576;28;20560;-80
2023/01/21 10:10:26;;;;;;;4.07;3.17;;;;;;;4.93;68.99;100997.72;5029372;28;20116;-79
2023/01/21 10:12:57;;;;;;;3.47;2.65;;;;;;;5.03;68.59;101017.19;5013290;28;20492;-80
2023/01/21 10:15:23;;;;;;;5.40;3.92;;;;;;;5.07;67.99;101026.50;5030444;28;20026;-79
2023/01/21 10:18:00;;;;;;;9.20;3.75;;;;;;;5.03;67.67;101030.00;5030286;28;20136;-80
2023/01/21 10:20:31;;;;;;;5.28;3.08;;;;;;;5.05;68.56;101031.66;5013327;28;20030;-80
2023/01/21 10:23:00;;;;;;;6.93;3.33;;;;;;;5.06;68.69;101015.41;5013098;28;20039;-80
2023/01/21 10:25:31;;;;;;;5.68;4.35;;;;;;;5.09;68.00;101022.19;5012269;28;20037;-80
2023/01/21 10:28:08;;;;;;;6.30;3.85;;;;;;;5.05;67.69;101000.03;5013223;28;20022;-79
2023/01/21 10:30:35;;;;;;;10.10;3.92;;;;;;;5.15;67.79;101004.09;5013000;28;20065;-79
2023/01/21 10:33:01;;;;;;;33.67;5.13;;;;;;;5.22;68.25;101003.13;5028924;28;20029;-79
2023/01/21 10:35:52;;;;;;;3.90;3.20;;;;;;;5.24;68.21;101015.91;5012613;28;20034;-80
2023/01/21 10:38:32;;;;;;;9.27;3.53;;;;;;;5.21;67.74;101010.81;5030105;28;20021;-79
2023/01/21 10:41:21;;;;;;;5.85;3.63;;;;;;;4.87;66.81;100953.38;5030072;28;20142;-79
2023/01/21 10:43:56;;;;;;;7.15;4.43;;;;;;;5.07;66.84;100970.09;5029612;28;20064;-79
2023/01/21 10:46:45;;;;;;;5.25;4.18;;;;;;;5.08;68.09;100971.75;5012615;28;20444;-80
2023/01/21 10:49:43;;;;;;;7.57;2.58;;;;;;;5.11;68.83;100992.22;5029503;28;20034;-80
2023/01/21 10:52:22;;;;;;;8.18;5.25;;;;;;;5.06;68.30;100981.22;5032165;28;20495;-80
2023/01/21 10:55:04;;;;;;;5.90;4.30;;;;;;;4.98;68.77;100967.69;5032996;28;20029;-80
2023/01/21 10:57:52;;;;;;;6.20;2.80;;;;;;;5.08;67.73;100984.59;5032920;28;20109;-79
2023/01/21 11:00:25;;;;;;;4.13;3.20;;;;;;;5.11;68.40;100980.25;5015995;28;20033;-79
2023/01/21 11:02:53;;;;;;;8.48;4.50;;;;;;;5.08;68.49;100972.59;5017194;28;20032;-80
2023/01/21 11:05:19;;;;;;;6.25;3.55;;;;;;;5.02;68.80;100977.03;5016283;28;20040;-80
2023/01/21 11:07:44;;;;;;;4.95;3.45;;;;;;;5.03;68.48;100984.69;5016158;28;20025;-79
2023/01/21 11:10:21;;;;;;;5.15;4.55;;;;;;;5.00;68.92;100982.16;5032502;28;20508;-79
2023/01/21 11:12:47;;;;;;;7.72;4.40;;;;;;;4.97;68.25;100976.28;5015922;28;20025;-79
2023/01/21 11:15:17;;;;;;;6.75;3.45;;;;;;;5.12;69.01;100989.63;5032072;28;20447;-79
2023/01/21 11:17:44;;;;;;;6.40;4.38;;;;;;;5.02;69.11;100959.09;5016351;28;20137;-80
2023/01/21 11:20:16;;;;;;;3.15;2.00;;;;;;;5.26;69.02;100991.06;5015769;28;20032;-79
2023/01/21 11:22:44;;;;;;;8.15;4.28;;;;;;;5.28;68.71;100986.72;5033476;28;20033;-79
2023/01/21 11:25:33;;;;;;;5.40;3.85;;;;;;;5.26;68.87;100997.03;5032238;28;20026;-80
2023/01/21 11:27:58;;;;;;;4.20;3.25;;;;;;;5.28;68.90;100992.72;5032150;28;20029;-79
2023/01/21 11:30:30;;;;;;;9.48;6.00;;;;;;;5.34;69.31;100992.59;5015381;28;20033;-79
2023/01/21 11:33:11;;;;;;;16.67;5.07;;;;;;;5.40;69.40;100986.47;5032170;28;20033;-79
2023/01/21 11:35:36;;;;;;;7.57;3.67;;;;;;;5.34;68.82;100972.06;5015964;28;20025;-79
2023/01/21 11:38:02;;;;;;;8.23;5.05;;;;;;;5.32;68.96;100961.00;5032263;28;20455;-79
2023/01/21 11:40:27;;;;;;;6.68;3.92;;;;;;;5.33;69.94;100949.84;5015540;28;20022;-80
2023/01/21 11:42:54;;;;;;;9.27;5.03;;;;;;;5.22;69.30;100949.25;5015810;28;20034;-80
2023/01/21 11:45:28;;;;;;;8.20;4.55;;;;;;;5.21;68.84;100950.13;5015191;28;20409;-80